Henderson, West Virginia
Current Conditions -  °F | °C
As of 6:55 AM on Thursday 27 Nov 2014 (Local Time) from K3I2 Reporting Station
Broken Clouds Broken Clouds  
Wind Chill: 32°   Ceiling: 2300
Heat Index: 32°   Visibility: 7mi
Dew Point: 30°   Wind: 3mph
Humidity: 93%   Direction: 270°W
Pressure: 30.11"   Gusts: NA
Location:  38.83°N, 82.14°W
Report Text: K3I2 271155Z AUTO 27003KT 7SM BKN023 BKN030 00/M01 A3011 RMK AO2
Loading
Personal Weather Stations






























Interactive Weather Map New forecast layout! Learn more

10-Day Weather Forecast

Advertisements
Track Severe Weather on mobile